sensor_id;sensor_type;location;lat;lon;timestamp;temperature;humidity
65995;HTU21D;52764;51.036;5.852;2023-04-03T00:02:18;5.49;67.20
65995;HTU21D;52764;51.036;5.852;2023-04-03T00:04:43;5.50;67.18
65995;HTU21D;52764;51.036;5.852;2023-04-03T00:07:10;5.51;67.11
65995;HTU21D;52764;51.036;5.852;2023-04-03T00:09:35;5.43;67.35
65995;HTU21D;52764;51.036;5.852;2023-04-03T00:12:01;5.39;67.55
65995;HTU21D;52764;51.036;5.852;2023-04-03T00:14:27;5.38;67.72
65995;HTU21D;52764;51.036;5.852;2023-04-03T00:16:53;5.36;67.84
65995;HTU21D;52764;51.036;5.852;2023-04-03T00:19:19;5.35;67.94
65995;HTU21D;52764;51.036;5.852;2023-04-03T00:21:44;5.33;68.02
65995;HTU21D;52764;51.036;5.852;2023-04-03T00:24:10;5.32;68.01
65995;HTU21D;52764;51.036;5.852;2023-04-03T00:26:36;5.28;68.05
65995;HTU21D;52764;51.036;5.852;2023-04-03T00:29:02;5.25;68.13
65995;HTU21D;52764;51.036;5.852;2023-04-03T00:31:27;5.22;68.06
65995;HTU21D;52764;51.036;5.852;2023-04-03T00:33:53;5.23;68.03
65995;HTU21D;52764;51.036;5.852;2023-04-03T00:36:19;5.19;68.23
65995;HTU21D;52764;51.036;5.852;2023-04-03T00:38:44;5.19;68.21
65995;HTU21D;52764;51.036;5.852;2023-04-03T00:41:10;5.15;68.31
65995;HTU21D;52764;51.036;5.852;2023-04-03T00:43:36;5.10;68.29
65995;HTU21D;52764;51.036;5.852;2023-04-03T00:46:03;2.06;68.39
65995;HTU21D;52764;51.036;5.852;2023-04-03T00:48:32;5.00;68.52
65995;HTU21D;52764;51.036;5.852;2023-04-03T00:51:02;5.03;68.53
65995;HTU21D;52764;51.036;5.852;2023-04-03T00:53:37;5.05;68.46
65995;HTU21D;52764;51.036;5.852;2023-04-03T00:56:07;5.00;68.74
65995;HTU21D;52764;51.036;5.852;2023-04-03T00:58:41;4.98;68.91
65995;HTU21D;52764;51.036;5.852;2023-04-03T01:01:14;4.92;68.96
65995;HTU21D;52764;51.036;5.852;2023-04-03T01:03:41;4.87;69.20
65995;HTU21D;52764;51.036;5.852;2023-04-03T01:06:07;1.73;69.29
65995;HTU21D;52764;51.036;5.852;2023-04-03T01:08:34;4.93;69.29
65995;HTU21D;52764;51.036;5.852;2023-04-03T01:11:00;4.95;69.02
65995;HTU21D;52764;51.036;5.852;2023-04-03T01:13:30;4.95;68.84
65995;HTU21D;52764;51.036;5.852;2023-04-03T01:16:01;5.00;68.66
65995;HTU21D;52764;51.036;5.852;2023-04-03T01:18:28;5.00;68.45
65995;HTU21D;52764;51.036;5.852;2023-04-03T01:24:22;5.01;68.48
65995;HTU21D;52764;51.036;5.852;2023-04-03T01:26:50;5.02;68.48
65995;HTU21D;52764;51.036;5.852;2023-04-03T01:29:16;5.04;68.15
65995;HTU21D;52764;51.036;5.852;2023-04-03T01:31:51;5.03;68.25
65995;HTU21D;52764;51.036;5.852;2023-04-03T01:34:17;5.00;68.36
65995;HTU21D;52764;51.036;5.852;2023-04-03T01:36:43;5.00;68.45
65995;HTU21D;52764;51.036;5.852;2023-04-03T01:39:09;4.96;68.70
65995;HTU21D;52764;51.036;5.852;2023-04-03T01:41:34;4.94;68.78
65995;HTU21D;52764;51.036;5.852;2023-04-03T01:44:09;4.94;68.91
65995;HTU21D;52764;51.036;5.852;2023-04-03T01:46:35;4.93;69.03
65995;HTU21D;52764;51.036;5.852;2023-04-03T01:49:01;4.92;69.04
65995;HTU21D;52764;51.036;5.852;2023-04-03T01:51:27;4.93;69.11
65995;HTU21D;52764;51.036;5.852;2023-04-03T01:53:53;4.92;68.87
65995;HTU21D;52764;51.036;5.852;2023-04-03T01:56:19;4.90;68.90
65995;HTU21D;52764;51.036;5.852;2023-04-03T01:58:46;4.89;69.04
65995;HTU21D;52764;51.036;5.852;2023-04-03T02:01:11;4.78;69.30
65995;HTU21D;52764;51.036;5.852;2023-04-03T02:03:37;4.76;69.42
65995;HTU21D;52764;51.036;5.852;2023-04-03T02:06:03;4.73;69.61
65995;HTU21D;52764;51.036;5.852;2023-04-03T02:08:28;4.74;69.59
65995;HTU21D;52764;51.036;5.852;2023-04-03T02:10:54;4.72;69.50
65995;HTU21D;52764;51.036;5.852;2023-04-03T02:13:20;4.71;69.31
65995;HTU21D;52764;51.036;5.852;2023-04-03T02:15:46;4.65;69.36
65995;HTU21D;52764;51.036;5.852;2023-04-03T02:18:17;4.62;69.35
65995;HTU21D;52764;51.036;5.852;2023-04-03T02:20:42;4.60;69.31
65995;HTU21D;52764;51.036;5.852;2023-04-03T02:23:09;4.59;69.52
65995;HTU21D;52764;51.036;5.852;2023-04-03T02:25:35;4.56;67.17
65995;HTU21D;52764;51.036;5.852;2023-04-03T02:28:00;4.52;69.74
65995;HTU21D;52764;51.036;5.852;2023-04-03T02:30:27;4.51;69.82
65995;HTU21D;52764;51.036;5.852;2023-04-03T02:32:52;4.49;69.84
65995;HTU21D;52764;51.036;5.852;2023-04-03T02:35:18;4.49;69.87
65995;HTU21D;52764;51.036;5.852;2023-04-03T02:37:44;4.46;70.00
65995;HTU21D;52764;51.036;5.852;2023-04-03T02:40:10;4.46;70.00
65995;HTU21D;52764;51.036;5.852;2023-04-03T02:42:37;4.45;70.11
65995;HTU21D;52764;51.036;5.852;2023-04-03T02:45:04;4.45;70.30
65995;HTU21D;52764;51.036;5.852;2023-04-03T02:47:31;4.47;70.16
65995;HTU21D;52764;51.036;5.852;2023-04-03T02:49:57;4.38;70.46
65995;HTU21D;52764;51.036;5.852;2023-04-03T02:52:22;4.37;70.64
65995;HTU21D;52764;51.036;5.852;2023-04-03T02:54:49;4.36;70.60
65995;HTU21D;52764;51.036;5.852;2023-04-03T02:57:15;4.37;70.42
65995;HTU21D;52764;51.036;5.852;2023-04-03T02:59:41;4.38;70.35
65995;HTU21D;52764;51.036;5.852;2023-04-03T03:02:08;4.38;70.13
65995;HTU21D;52764;51.036;5.852;2023-04-03T03:04:35;4.37;70.02
65995;HTU21D;52764;51.036;5.852;2023-04-03T03:07:01;4.35;70.00
65995;HTU21D;52764;51.036;5.852;2023-04-03T03:09:28;4.36;70.09
65995;HTU21D;52764;51.036;5.852;2023-04-03T03:11:55;4.33;70.19
65995;HTU21D;52764;51.036;5.852;2023-04-03T03:14:22;4.32;70.50
65995;HTU21D;52764;51.036;5.852;2023-04-03T03:16:47;4.35;70.47
65995;HTU21D;52764;51.036;5.852;2023-04-03T03:19:13;4.33;70.44
65995;HTU21D;52764;51.036;5.852;2023-04-03T03:21:39;4.31;70.20
65995;HTU21D;52764;51.036;5.852;2023-04-03T03:24:05;4.27;70.26
65995;HTU21D;52764;51.036;5.852;2023-04-03T03:26:32;4.23;70.39
65995;HTU21D;52764;51.036;5.852;2023-04-03T03:28:57;4.19;70.43
65995;HTU21D;52764;51.036;5.852;2023-04-03T03:31:23;4.14;70.55
65995;HTU21D;52764;51.036;5.852;2023-04-03T03:33:49;4.09;70.71
65995;HTU21D;52764;51.036;5.852;2023-04-03T03:36:15;2.79;70.81
65995;HTU21D;52764;51.036;5.852;2023-04-03T03:38:41;4.01;70.99
65995;HTU21D;52764;51.036;5.852;2023-04-03T03:41:08;4.00;71.23
65995;HTU21D;52764;51.036;5.852;2023-04-03T03:43:34;3.99;71.38
65995;HTU21D;52764;51.036;5.852;2023-04-03T03:46:02;4.00;71.43
65995;HTU21D;52764;51.036;5.852;2023-04-03T03:48:28;3.98;71.58
65995;HTU21D;52764;51.036;5.852;2023-04-03T03:50:53;3.99;71.55
65995;HTU21D;52764;51.036;5.852;2023-04-03T03:53:23;4.01;71.46
65995;HTU21D;52764;51.036;5.852;2023-04-03T03:55:52;4.00;71.37
65995;HTU21D;52764;51.036;5.852;2023-04-03T03:58:20;3.98;71.36
65995;HTU21D;52764;51.036;5.852;2023-04-03T04:00:46;3.94;71.49
65995;HTU21D;52764;51.036;5.852;2023-04-03T04:03:12;3.92;71.59
65995;HTU21D;52764;51.036;5.852;2023-04-03T04:05:39;3.92;71.85
65995;HTU21D;52764;51.036;5.852;2023-04-03T04:08:05;3.93;71.98
65995;HTU21D;52764;51.036;5.852;2023-04-03T04:10:32;3.90;72.10
65995;HTU21D;52764;51.036;5.852;2023-04-03T04:12:58;3.89;72.25
65995;HTU21D;52764;51.036;5.852;2023-04-03T04:15:26;3.85;72.29
65995;HTU21D;52764;51.036;5.852;2023-04-03T04:17:53;3.80;72.48
65995;HTU21D;52764;51.036;5.852;2023-04-03T04:20:19;3.74;72.67
65995;HTU21D;52764;51.036;5.852;2023-04-03T04:22:45;3.73;72.81
65995;HTU21D;52764;51.036;5.852;2023-04-03T04:25:11;3.71;72.77
65995;HTU21D;52764;51.036;5.852;2023-04-03T04:27:38;3.75;72.75
65995;HTU21D;52764;51.036;5.852;2023-04-03T04:30:05;3.76;72.67
65995;HTU21D;52764;51.036;5.852;2023-04-03T04:32:32;3.77;72.65
65995;HTU21D;52764;51.036;5.852;2023-04-03T04:34:58;3.78;72.70
65995;HTU21D;52764;51.036;5.852;2023-04-03T04:37:25;3.74;72.93
65995;HTU21D;52764;51.036;5.852;2023-04-03T04:39:51;3.73;73.09
65995;HTU21D;52764;51.036;5.852;2023-04-03T04:42:17;3.71;73.30
65995;HTU21D;52764;51.036;5.852;2023-04-03T04:44:44;3.68;73.32
65995;HTU21D;52764;51.036;5.852;2023-04-03T04:47:12;3.64;73.49
65995;HTU21D;52764;51.036;5.852;2023-04-03T04:49:38;3.62;73.61
65995;HTU21D;52764;51.036;5.852;2023-04-03T04:52:04;3.62;73.64
65995;HTU21D;52764;51.036;5.852;2023-04-03T04:54:31;3.59;73.72
65995;HTU21D;52764;51.036;5.852;2023-04-03T04:56:57;3.58;73.80
65995;HTU21D;52764;51.036;5.852;2023-04-03T04:59:23;3.54;73.87
65995;HTU21D;52764;51.036;5.852;2023-04-03T05:01:52;3.53;74.09
65995;HTU21D;52764;51.036;5.852;2023-04-03T05:04:17;3.54;74.05
65995;HTU21D;52764;51.036;5.852;2023-04-03T05:06:46;3.52;74.19
65995;HTU21D;52764;51.036;5.852;2023-04-03T05:09:17;3.50;74.24
65995;HTU21D;52764;51.036;5.852;2023-04-03T05:11:46;3.54;74.31
65995;HTU21D;52764;51.036;5.852;2023-04-03T05:14:14;3.59;74.01
65995;HTU21D;52764;51.036;5.852;2023-04-03T05:16:40;3.61;73.86
65995;HTU21D;52764;51.036;5.852;2023-04-03T05:19:06;3.61;73.90
65995;HTU21D;52764;51.036;5.852;2023-04-03T05:21:32;3.61;73.88
65995;HTU21D;52764;51.036;5.852;2023-04-03T05:24:02;3.61;73.80
65995;HTU21D;52764;51.036;5.852;2023-04-03T05:26:31;3.60;73.72
65995;HTU21D;52764;51.036;5.852;2023-04-03T05:28:57;3.60;73.77
65995;HTU21D;52764;51.036;5.852;2023-04-03T05:31:23;3.69;73.91
65995;HTU21D;52764;51.036;5.852;2023-04-03T05:33:50;3.95;74.22
65995;HTU21D;52764;51.036;5.852;2023-04-03T05:36:17;4.51;73.71
65995;HTU21D;52764;51.036;5.852;2023-04-03T05:38:46;5.10;71.74
65995;HTU21D;52764;51.036;5.852;2023-04-03T05:41:13;5.60;70.41
65995;HTU21D;52764;51.036;5.852;2023-04-03T05:43:40;6.15;68.52
65995;HTU21D;52764;51.036;5.852;2023-04-03T05:46:13;6.83;66.86
65995;HTU21D;52764;51.036;5.852;2023-04-03T05:48:41;7.62;64.80
65995;HTU21D;52764;51.036;5.852;2023-04-03T05:51:19;8.57;62.10
65995;HTU21D;52764;51.036;5.852;2023-04-03T05:53:55;9.47;59.46
65995;HTU21D;52764;51.036;5.852;2023-04-03T05:56:22;10.21;57.10
65995;HTU21D;52764;51.036;5.852;2023-04-03T05:58:47;10.85;54.36
65995;HTU21D;52764;51.036;5.852;2023-04-03T06:01:13;11.49;52.30
65995;HTU21D;52764;51.036;5.852;2023-04-03T06:03:40;11.77;51.34
65995;HTU21D;52764;51.036;5.852;2023-04-03T06:06:08;12.08;50.53
65995;HTU21D;52764;51.036;5.852;2023-04-03T06:08:37;12.63;48.47
65995;HTU21D;52764;51.036;5.852;2023-04-03T06:11:03;12.89;47.28
65995;HTU21D;52764;51.036;5.852;2023-04-03T06:13:29;13.17;46.77
65995;HTU21D;52764;51.036;5.852;2023-04-03T06:15:55;13.60;45.99
65995;HTU21D;52764;51.036;5.852;2023-04-03T06:18:21;13.97;44.80
65995;HTU21D;52764;51.036;5.852;2023-04-03T06:20:47;14.93;43.95
65995;HTU21D;52764;51.036;5.852;2023-04-03T06:23:13;14.68;42.81
65995;HTU21D;52764;51.036;5.852;2023-04-03T06:25:38;14.78;42.32
65995;HTU21D;52764;51.036;5.852;2023-04-03T06:28:05;15.09;41.55
65995;HTU21D;52764;51.036;5.852;2023-04-03T06:30:31;15.22;41.00
65995;HTU21D;52764;51.036;5.852;2023-04-03T06:32:56;15.26;40.91
65995;HTU21D;52764;51.036;5.852;2023-04-03T06:35:22;15.28;41.08
65995;HTU21D;52764;51.036;5.852;2023-04-03T06:37:49;15.03;41.12
65995;HTU21D;52764;51.036;5.852;2023-04-03T06:40:23;14.65;41.68
65995;HTU21D;52764;51.036;5.852;2023-04-03T06:42:49;14.37;42.19
65995;HTU21D;52764;51.036;5.852;2023-04-03T06:45:17;13.86;42.43
65995;HTU21D;52764;51.036;5.852;2023-04-03T06:47:42;13.41;43.27
65995;HTU21D;52764;51.036;5.852;2023-04-03T06:50:10;12.87;44.04
65995;HTU21D;52764;51.036;5.852;2023-04-03T06:52:37;12.52;45.32
65995;HTU21D;52764;51.036;5.852;2023-04-03T06:55:05;12.43;45.22
65995;HTU21D;52764;51.036;5.852;2023-04-03T06:57:31;11.91;46.41
65995;HTU21D;52764;51.036;5.852;2023-04-03T06:59:56;11.67;46.89
65995;HTU21D;52764;51.036;5.852;2023-04-03T07:02:22;11.45;47.15
65995;HTU21D;52764;51.036;5.852;2023-04-03T07:04:48;11.34;48.34
65995;HTU21D;52764;51.036;5.852;2023-04-03T07:07:13;12.31;46.99
65995;HTU21D;52764;51.036;5.852;2023-04-03T07:09:40;11.15;45.75
65995;HTU21D;52764;51.036;5.852;2023-04-03T07:12:05;12.01;46.63
65995;HTU21D;52764;51.036;5.852;2023-04-03T07:14:31;12.12;46.93
65995;HTU21D;52764;51.036;5.852;2023-04-03T07:16:57;11.07;46.43
65995;HTU21D;52764;51.036;5.852;2023-04-03T07:19:22;12.13;46.66
65995;HTU21D;52764;51.036;5.852;2023-04-03T07:21:49;12.29;46.97
65995;HTU21D;52764;51.036;5.852;2023-04-03T07:24:15;12.57;46.06
65995;HTU21D;52764;51.036;5.852;2023-04-03T07:26:41;13.16;46.09
65995;HTU21D;52764;51.036;5.852;2023-04-03T07:29:07;13.63;43.69
65995;HTU21D;52764;51.036;5.852;2023-04-03T07:31:32;13.44;43.39
65995;HTU21D;52764;51.036;5.852;2023-04-03T07:33:59;12.92;43.90
65995;HTU21D;52764;51.036;5.852;2023-04-03T07:36:25;11.62;44.94
65995;HTU21D;52764;51.036;5.852;2023-04-03T07:38:50;12.41;45.62
65995;HTU21D;52764;51.036;5.852;2023-04-03T07:41:18;-29.13;45.80
65995;HTU21D;52764;51.036;5.852;2023-04-03T07:43:45;12.74;45.59
65995;HTU21D;52764;51.036;5.852;2023-04-03T07:46:12;13.04;44.86
65995;HTU21D;52764;51.036;5.852;2023-04-03T07:48:38;-15.21;44.95
65995;HTU21D;52764;51.036;5.852;2023-04-03T07:51:05;13.21;44.64
65995;HTU21D;52764;51.036;5.852;2023-04-03T07:53:31;12.80;43.87
65995;HTU21D;52764;51.036;5.852;2023-04-03T07:55:58;12.65;44.80
65995;HTU21D;52764;51.036;5.852;2023-04-03T07:58:25;12.95;44.68
65995;HTU21D;52764;51.036;5.852;2023-04-03T08:00:52;13.37;43.80
65995;HTU21D;52764;51.036;5.852;2023-04-03T08:03:17;13.47;43.43
65995;HTU21D;52764;51.036;5.852;2023-04-03T08:05:47;13.59;43.42
65995;HTU21D;52764;51.036;5.852;2023-04-03T08:08:15;13.19;43.15
65995;HTU21D;52764;51.036;5.852;2023-04-03T08:10:41;13.01;44.19
65995;HTU21D;52764;51.036;5.852;2023-04-03T08:13:08;13.43;44.32
65995;HTU21D;52764;51.036;5.852;2023-04-03T08:15:35;13.93;42.81
65995;HTU21D;52764;51.036;5.852;2023-04-03T08:18:01;13.74;41.74
65995;HTU21D;52764;51.036;5.852;2023-04-03T08:20:27;13.18;42.81
65995;HTU21D;52764;51.036;5.852;2023-04-03T08:22:54;12.79;43.96
65995;HTU21D;52764;51.036;5.852;2023-04-03T08:25:20;12.67;43.12
65995;HTU21D;52764;51.036;5.852;2023-04-03T08:27:46;11.70;44.04
65995;HTU21D;52764;51.036;5.852;2023-04-03T08:30:12;11.00;45.45
65995;HTU21D;52764;51.036;5.852;2023-04-03T08:32:38;10.63;46.92
65995;HTU21D;52764;51.036;5.852;2023-04-03T08:35:04;10.50;47.95
65995;HTU21D;52764;51.036;5.852;2023-04-03T08:37:30;10.69;48.03
65995;HTU21D;52764;51.036;5.852;2023-04-03T08:39:57;10.60;47.70
65995;HTU21D;52764;51.036;5.852;2023-04-03T08:42:45;10.19;47.22
65995;HTU21D;52764;51.036;5.852;2023-04-03T08:48:36;9.60;48.73
65995;HTU21D;52764;51.036;5.852;2023-04-03T08:51:19;9.64;48.86
65995;HTU21D;52764;51.036;5.852;2023-04-03T08:54:06;9.83;49.01
65995;HTU21D;52764;51.036;5.852;2023-04-03T08:56:40;9.48;48.78
65995;HTU21D;52764;51.036;5.852;2023-04-03T08:59:14;9.44;42.23
65995;HTU21D;52764;51.036;5.852;2023-04-03T09:01:43;9.50;48.57
65995;HTU21D;52764;51.036;5.852;2023-04-03T09:04:13;9.59;48.08
65995;HTU21D;52764;51.036;5.852;2023-04-03T09:06:42;9.74;45.86
65995;HTU21D;52764;51.036;5.852;2023-04-03T09:09:37;9.76;46.32
65995;HTU21D;52764;51.036;5.852;2023-04-03T09:12:15;9.89;45.86
65995;HTU21D;52764;51.036;5.852;2023-04-03T09:17:30;9.93;45.45
65995;HTU21D;52764;51.036;5.852;2023-04-03T09:22:57;10.01;44.06
65995;HTU21D;52764;51.036;5.852;2023-04-03T09:25:32;10.08;43.93
65995;HTU21D;52764;51.036;5.852;2023-04-03T09:27:59;9.90;43.80
65995;HTU21D;52764;51.036;5.852;2023-04-03T09:30:26;9.78;43.46
65995;HTU21D;52764;51.036;5.852;2023-04-03T09:32:55;9.83;43.26
65995;HTU21D;52764;51.036;5.852;2023-04-03T09:35:31;9.94;42.44
65995;HTU21D;52764;51.036;5.852;2023-04-03T09:38:15;9.90;40.84
65995;HTU21D;52764;51.036;5.852;2023-04-03T09:40:44;9.93;41.25
65995;HTU21D;52764;51.036;5.852;2023-04-03T09:45:44;9.81;39.08
65995;HTU21D;52764;51.036;5.852;2023-04-03T09:50:55;9.44;40.93
65995;HTU21D;52764;51.036;5.852;2023-04-03T09:53:36;9.54;40.42
65995;HTU21D;52764;51.036;5.852;2023-04-03T09:56:27;9.53;39.67
65995;HTU21D;52764;51.036;5.852;2023-04-03T09:59:08;9.45;40.10
65995;HTU21D;52764;51.036;5.852;2023-04-03T10:01:39;10.85;40.07
65995;HTU21D;52764;51.036;5.852;2023-04-03T10:09:31;9.67;37.98
65995;HTU21D;52764;51.036;5.852;2023-04-03T10:12:06;9.37;38.27
65995;HTU21D;52764;51.036;5.852;2023-04-03T10:14:35;9.34;38.37
65995;HTU21D;52764;51.036;5.852;2023-04-03T10:23:14;9.36;39.72
65995;HTU21D;52764;51.036;5.852;2023-04-03T10:33:48;9.50;38.14
65995;HTU21D;52764;51.036;5.852;2023-04-03T10:36:48;9.45;38.25
65995;HTU21D;52764;51.036;5.852;2023-04-03T10:56:01;9.67;39.07
65995;HTU21D;52764;51.036;5.852;2023-04-03T11:01:22;9.59;37.21
65995;HTU21D;52764;51.036;5.852;2023-04-03T11:03:57;9.48;38.64
65995;HTU21D;52764;51.036;5.852;2023-04-03T11:06:31;9.26;37.51
65995;HTU21D;52764;51.036;5.852;2023-04-03T11:09:00;9.35;38.77
65995;HTU21D;52764;51.036;5.852;2023-04-03T11:11:34;9.50;37.04
65995;HTU21D;52764;51.036;5.852;2023-04-03T11:14:35;9.53;38.63
65995;HTU21D;52764;51.036;5.852;2023-04-03T11:17:28;9.51;38.26
65995;HTU21D;52764;51.036;5.852;2023-04-03T11:20:08;9.49;38.12
65995;HTU21D;52764;51.036;5.852;2023-04-03T11:22:47;9.45;38.14
65995;HTU21D;52764;51.036;5.852;2023-04-03T11:25:19;9.36;38.16
65995;HTU21D;52764;51.036;5.852;2023-04-03T11:36:03;9.62;38.86
65995;HTU21D;52764;51.036;5.852;2023-04-03T11:38:43;9.74;38.52
65995;HTU21D;52764;51.036;5.852;2023-04-03T11:41:25;9.86;38.64
65995;HTU21D;52764;51.036;5.852;2023-04-03T11:44:02;10.07;39.52
65995;HTU21D;52764;51.036;5.852;2023-04-03T11:46:58;9.92;38.11
65995;HTU21D;52764;51.036;5.852;2023-04-03T11:50:25;9.77;39.52
65995;HTU21D;52764;51.036;5.852;2023-04-03T12:13:37;10.12;40.95
65995;HTU21D;52764;51.036;5.852;2023-04-03T12:16:05;10.31;41.20
65995;HTU21D;52764;51.036;5.852;2023-04-03T12:21:17;10.45;41.16
65995;HTU21D;52764;51.036;5.852;2023-04-03T12:27:24;10.38;39.89
65995;HTU21D;52764;51.036;5.852;2023-04-03T12:37:57;10.40;39.37
65995;HTU21D;52764;51.036;5.852;2023-04-03T12:45:56;10.62;39.10
65995;HTU21D;52764;51.036;5.852;2023-04-03T12:48:27;10.69;38.94
65995;HTU21D;52764;51.036;5.852;2023-04-03T12:50:56;10.78;39.06
65995;HTU21D;52764;51.036;5.852;2023-04-03T12:53:28;10.79;38.63
65995;HTU21D;52764;51.036;5.852;2023-04-03T12:56:20;10.66;39.24
65995;HTU21D;52764;51.036;5.852;2023-04-03T12:58:48;10.74;38.94
65995;HTU21D;52764;51.036;5.852;2023-04-03T13:01:23;10.96;39.35
65995;HTU21D;52764;51.036;5.852;2023-04-03T13:03:53;11.04;37.91
65995;HTU21D;52764;51.036;5.852;2023-04-03T13:06:27;11.08;37.53
65995;HTU21D;52764;51.036;5.852;2023-04-03T13:08:59;11.16;38.17
65995;HTU21D;52764;51.036;5.852;2023-04-03T13:11:32;11.22;38.11
65995;HTU21D;52764;51.036;5.852;2023-04-03T13:14:12;11.10;37.12
65995;HTU21D;52764;51.036;5.852;2023-04-03T13:16:40;10.80;38.05
65995;HTU21D;52764;51.036;5.852;2023-04-03T13:19:16;10.80;38.34
65995;HTU21D;52764;51.036;5.852;2023-04-03T13:21:43;10.83;38.46
65995;HTU21D;52764;51.036;5.852;2023-04-03T13:24:11;10.88;38.95
65995;HTU21D;52764;51.036;5.852;2023-04-03T13:26:38;10.99;39.36
65995;HTU21D;52764;51.036;5.852;2023-04-03T13:29:27;11.07;21.06
65995;HTU21D;52764;51.036;5.852;2023-04-03T13:31:55;11.11;37.85
65995;HTU21D;52764;51.036;5.852;2023-04-03T13:34:24;11.09;37.88
65995;HTU21D;52764;51.036;5.852;2023-04-03T13:39:30;11.04;37.76
65995;HTU21D;52764;51.036;5.852;2023-04-03T13:41:59;11.20;38.36
65995;HTU21D;52764;51.036;5.852;2023-04-03T13:44:35;11.38;38.04
65995;HTU21D;52764;51.036;5.852;2023-04-03T13:47:22;11.33;37.78
65995;HTU21D;52764;51.036;5.852;2023-04-03T13:50:20;11.31;36.30
65995;HTU21D;52764;51.036;5.852;2023-04-03T13:52:59;11.75;36.56
65995;HTU21D;52764;51.036;5.852;2023-04-03T13:55:54;11.24;36.31
65995;HTU21D;52764;51.036;5.852;2023-04-03T13:58:37;11.30;36.66
65995;HTU21D;52764;51.036;5.852;2023-04-03T14:01:19;11.36;36.88
65995;HTU21D;52764;51.036;5.852;2023-04-03T14:03:57;11.48;37.19
65995;HTU21D;52764;51.036;5.852;2023-04-03T14:06:24;11.53;36.75
65995;HTU21D;52764;51.036;5.852;2023-04-03T14:08:50;11.52;36.10
65995;HTU21D;52764;51.036;5.852;2023-04-03T14:11:24;11.51;35.80
65995;HTU21D;52764;51.036;5.852;2023-04-03T14:13:52;11.53;37.54
65995;HTU21D;52764;51.036;5.852;2023-04-03T14:16:22;11.47;36.60
65995;HTU21D;52764;51.036;5.852;2023-04-03T14:18:50;11.42;37.62
65995;HTU21D;52764;51.036;5.852;2023-04-03T14:21:18;11.48;36.56
65995;HTU21D;52764;51.036;5.852;2023-04-03T14:23:45;11.48;36.72
65995;HTU21D;52764;51.036;5.852;2023-04-03T14:26:18;11.43;36.03
65995;HTU21D;52764;51.036;5.852;2023-04-03T14:28:47;11.46;36.14
65995;HTU21D;52764;51.036;5.852;2023-04-03T14:31:15;11.59;36.57
65995;HTU21D;52764;51.036;5.852;2023-04-03T14:33:41;11.57;36.24
65995;HTU21D;52764;51.036;5.852;2023-04-03T14:36:22;11.54;36.25
65995;HTU21D;52764;51.036;5.852;2023-04-03T14:38:49;11.41;34.32
65995;HTU21D;52764;51.036;5.852;2023-04-03T14:41:18;11.39;35.00
65995;HTU21D;52764;51.036;5.852;2023-04-03T14:43:45;11.45;35.88
65995;HTU21D;52764;51.036;5.852;2023-04-03T14:46:33;11.52;36.27
65995;HTU21D;52764;51.036;5.852;2023-04-03T14:49:00;11.45;36.60
65995;HTU21D;52764;51.036;5.852;2023-04-03T14:51:26;11.46;36.13
65995;HTU21D;52764;51.036;5.852;2023-04-03T14:53:52;11.53;36.35
65995;HTU21D;52764;51.036;5.852;2023-04-03T14:56:23;11.58;36.97
65995;HTU21D;52764;51.036;5.852;2023-04-03T14:58:59;11.46;33.93
65995;HTU21D;52764;51.036;5.852;2023-04-03T15:01:26;11.41;35.02
65995;HTU21D;52764;51.036;5.852;2023-04-03T15:03:51;11.38;34.92
65995;HTU21D;52764;51.036;5.852;2023-04-03T15:06:17;11.42;33.63
65995;HTU21D;52764;51.036;5.852;2023-04-03T15:08:46;11.40;34.92
65995;HTU21D;52764;51.036;5.852;2023-04-03T15:11:13;11.54;36.13
65995;HTU21D;52764;51.036;5.852;2023-04-03T15:13:40;11.56;35.64
65995;HTU21D;52764;51.036;5.852;2023-04-03T15:16:18;11.60;35.95
65995;HTU21D;52764;51.036;5.852;2023-04-03T15:18:46;11.63;36.54
65995;HTU21D;52764;51.036;5.852;2023-04-03T15:21:13;11.58;35.75
65995;HTU21D;52764;51.036;5.852;2023-04-03T15:23:39;11.42;35.37
65995;HTU21D;52764;51.036;5.852;2023-04-03T15:26:05;11.45;35.48
65995;HTU21D;52764;51.036;5.852;2023-04-03T15:28:37;11.48;36.31
65995;HTU21D;52764;51.036;5.852;2023-04-03T15:31:04;11.57;36.47
65995;HTU21D;52764;51.036;5.852;2023-04-03T15:33:30;11.62;36.68
65995;HTU21D;52764;51.036;5.852;2023-04-03T15:35:56;11.59;36.50
65995;HTU21D;52764;51.036;5.852;2023-04-03T15:38:22;11.51;17.86
65995;HTU21D;52764;51.036;5.852;2023-04-03T15:40:48;11.46;36.82
65995;HTU21D;52764;51.036;5.852;2023-04-03T15:43:15;11.33;34.91
65995;HTU21D;52764;51.036;5.852;2023-04-03T15:45:42;11.32;36.15
65995;HTU21D;52764;51.036;5.852;2023-04-03T15:48:09;11.34;35.89
65995;HTU21D;52764;51.036;5.852;2023-04-03T15:50:36;11.33;35.99
65995;HTU21D;52764;51.036;5.852;2023-04-03T15:53:02;11.34;36.15
65995;HTU21D;52764;51.036;5.852;2023-04-03T15:55:31;11.34;36.59
65995;HTU21D;52764;51.036;5.852;2023-04-03T15:57:58;11.31;37.05
65995;HTU21D;52764;51.036;5.852;2023-04-03T16:00:24;11.29;36.34
65995;HTU21D;52764;51.036;5.852;2023-04-03T16:02:58;11.22;36.41
65995;HTU21D;52764;51.036;5.852;2023-04-03T16:05:25;11.16;36.68
65995;HTU21D;52764;51.036;5.852;2023-04-03T16:07:51;11.12;36.75
65995;HTU21D;52764;51.036;5.852;2023-04-03T16:10:18;11.08;36.77
65995;HTU21D;52764;51.036;5.852;2023-04-03T16:12:44;11.05;36.91
65995;HTU21D;52764;51.036;5.852;2023-04-03T16:15:11;11.04;37.34
65995;HTU21D;52764;51.036;5.852;2023-04-03T16:17:38;11.03;37.75
65995;HTU21D;52764;51.036;5.852;2023-04-03T16:20:07;11.01;37.46
65995;HTU21D;52764;51.036;5.852;2023-04-03T16:22:34;11.03;37.85
65995;HTU21D;52764;51.036;5.852;2023-04-03T16:25:00;11.02;37.43
65995;HTU21D;52764;51.036;5.852;2023-04-03T16:27:25;10.99;37.25
65995;HTU21D;52764;51.036;5.852;2023-04-03T16:29:58;10.96;37.96
65995;HTU21D;52764;51.036;5.852;2023-04-03T16:32:27;11.00;38.05
65995;HTU21D;52764;51.036;5.852;2023-04-03T16:34:55;10.98;38.04
65995;HTU21D;52764;51.036;5.852;2023-04-03T16:37:21;10.98;37.92
65995;HTU21D;52764;51.036;5.852;2023-04-03T16:39:47;10.93;38.08
65995;HTU21D;52764;51.036;5.852;2023-04-03T16:42:12;10.88;37.81
65995;HTU21D;52764;51.036;5.852;2023-04-03T16:44:38;10.88;37.77
65995;HTU21D;52764;51.036;5.852;2023-04-03T16:47:06;10.81;37.72
65995;HTU21D;52764;51.036;5.852;2023-04-03T16:49:31;10.85;37.72
65995;HTU21D;52764;51.036;5.852;2023-04-03T16:52:00;10.75;37.53
65995;HTU21D;52764;51.036;5.852;2023-04-03T16:54:26;10.73;38.33
65995;HTU21D;52764;51.036;5.852;2023-04-03T16:56:52;10.81;39.02
65995;HTU21D;52764;51.036;5.852;2023-04-03T16:59:19;10.82;38.40
65995;HTU21D;52764;51.036;5.852;2023-04-03T17:01:45;10.74;38.10
65995;HTU21D;52764;51.036;5.852;2023-04-03T17:04:10;10.65;37.93
65995;HTU21D;52764;51.036;5.852;2023-04-03T17:06:39;10.56;38.38
65995;HTU21D;52764;51.036;5.852;2023-04-03T17:09:06;10.51;38.42
65995;HTU21D;52764;51.036;5.852;2023-04-03T17:11:32;10.49;38.38
65995;HTU21D;52764;51.036;5.852;2023-04-03T17:13:58;10.44;38.20
65995;HTU21D;52764;51.036;5.852;2023-04-03T17:16:24;10.38;38.71
65995;HTU21D;52764;51.036;5.852;2023-04-03T17:18:52;10.28;39.09
65995;HTU21D;52764;51.036;5.852;2023-04-03T17:21:19;10.28;39.88
65995;HTU21D;52764;51.036;5.852;2023-04-03T17:23:49;10.31;39.97